Time;durP1;ratioP1;P1;durP2;ratioP2;P2;SDS_P1;SDS_P2;PMS_P1;PMS_P2;Temp;Humidity;BMP_temperature;BMP_pressure;BME280_temperature;BME280_humidity;BME280_pressure;Samples;Min_cycle;Max_cycle;Signal;HPM_P1;HPM_P2
2024/03/16 00:01:56;;;;;;;34.00;22.30;;;;;;;6.96;79.49;99789.74;131334;1253;106580;-80
2024/03/16 00:05:01;;;;;;;34.40;21.90;;;;;;;6.98;79.69;99784.27;131263;1252;109028;-78
2024/03/16 00:08:07;;;;;;;37.20;22.20;;;;;;;6.99;79.48;99777.73;131253;1252;107193;-78
2024/03/16 00:11:12;;;;;;;34.50;20.60;;;;;;;6.99;79.54;99780.02;131353;1253;107788;-79
2024/03/16 00:14:17;;;;;;;30.30;19.30;;;;;;;6.97;79.67;99787.65;131275;1251;108710;-78
2024/03/16 00:17:22;;;;;;;30.90;18.20;;;;;;;6.95;79.74;99777.98;131129;1253;107706;-79
2024/03/16 00:20:27;;;;;;;33.00;19.20;;;;;;;6.93;79.74;99782.18;131034;1253;107743;-79
2024/03/16 00:23:32;;;;;;;36.10;21.30;;;;;;;6.93;79.76;99777.23;131011;1253;108397;-78
2024/03/16 00:26:37;;;;;;;38.10;22.20;;;;;;;6.95;79.95;99775.52;131114;1253;106439;-79
2024/03/16 00:29:42;;;;;;;35.20;22.00;;;;;;;6.93;79.92;99772.48;131312;1253;107952;-79
2024/03/16 00:32:48;;;;;;;35.00;22.10;;;;;;;6.90;79.85;99773.51;131196;1252;107939;-81
2024/03/16 00:35:53;;;;;;;34.00;21.50;;;;;;;6.87;79.91;99767.04;131293;1261;107844;-78
2024/03/16 00:38:58;;;;;;;36.80;21.40;;;;;;;6.84;79.87;99767.51;131044;1253;107587;-80
2024/03/16 00:42:04;;;;;;;33.70;19.50;;;;;;;6.78;80.20;99764.10;131035;1253;107732;-79
2024/03/16 00:45:09;;;;;;;29.30;17.90;;;;;;;6.75;80.01;99763.38;131125;1253;106444;-79
2024/03/16 00:48:15;;;;;;;36.50;21.40;;;;;;;6.74;80.45;99764.72;131365;1253;108784;-81
2024/03/16 00:51:20;;;;;;;36.80;21.50;;;;;;;6.73;80.43;99768.15;131361;1253;108490;-79
2024/03/16 00:54:25;;;;;;;34.60;20.90;;;;;;;6.74;80.24;99769.98;131378;1253;107812;-81
2024/03/16 00:57:31;;;;;;;36.00;22.00;;;;;;;6.75;80.29;99763.18;131196;1253;108667;-82
2024/03/16 01:00:36;;;;;;;33.20;20.50;;;;;;;6.74;80.19;99757.42;131234;1253;108668;-78
2024/03/16 01:03:41;;;;;;;34.50;21.20;;;;;;;6.73;80.36;99755.27;131357;1253;108587;-79
2024/03/16 01:06:46;;;;;;;33.90;20.90;;;;;;;6.68;80.45;99754.20;131363;1253;108716;-79
2024/03/16 01:09:51;;;;;;;33.70;19.10;;;;;;;6.66;80.54;99753.19;131063;1253;106488;-78
2024/03/16 01:12:56;;;;;;;30.80;17.70;;;;;;;6.62;80.34;99752.64;131043;1253;107089;-79
2024/03/16 01:16:01;;;;;;;35.20;20.40;;;;;;;6.60;80.73;99752.14;131022;1253;108757;-78
2024/03/16 01:19:06;;;;;;;36.80;21.00;;;;;;;6.63;80.77;99749.38;131417;1253;108752;-79
2024/03/16 01:22:12;;;;;;;33.40;20.70;;;;;;;6.65;80.66;99748.29;131375;1253;107498;-79
2024/03/16 01:25:17;;;;;;;35.90;20.90;;;;;;;6.65;80.65;99739.66;131250;1252;107100;-78
2024/03/16 01:28:22;;;;;;;37.70;20.90;;;;;;;6.65;80.67;99740.36;131243;1249;106499;-79
2024/03/16 01:31:29;;;;;;;33.90;21.60;;;;;;;6.63;81.00;99736.30;131029;1250;107352;-79
2024/03/16 01:34:34;;;;;;;36.30;22.00;;;;;;;6.60;81.10;99737.49;131203;1253;107539;-80
2024/03/16 01:37:39;;;;;;;36.00;19.40;;;;;;;6.57;80.94;99736.01;131006;1253;106392;-79
2024/03/16 01:40:45;;;;;;;31.50;18.90;;;;;;;6.54;81.33;99735.42;131008;1251;107508;-79
2024/03/16 01:43:50;;;;;;;37.00;21.60;;;;;;;6.53;81.25;99731.97;131228;1251;107463;-80
2024/03/16 01:46:55;;;;;;;35.70;21.80;;;;;;;6.54;81.25;99731.30;131355;1251;108435;-79
2024/03/16 01:50:00;;;;;;;35.20;21.50;;;;;;;6.57;81.35;99725.23;131318;1253;106827;-79
2024/03/16 01:53:06;;;;;;;40.60;24.00;;;;;;;6.57;81.48;99726.11;131078;1253;107831;-79
2024/03/16 01:56:12;;;;;;;40.40;22.90;;;;;;;6.56;81.25;99727.63;131312;1253;106654;-80
2024/03/16 01:59:17;;;;;;;35.70;22.40;;;;;;;6.54;81.22;99727.99;131175;1250;107731;-79
2024/03/16 02:02:36;;;;;;;36.70;20.00;;;;;;;6.51;81.41;99725.11;131077;1250;107782;-80
2024/03/16 02:05:42;;;;;;;32.60;18.70;;;;;;;6.47;81.49;99723.68;131254;1253;108378;-79
2024/03/16 02:08:47;;;;;;;37.50;21.20;;;;;;;6.48;81.83;99726.61;131039;1253;107083;-80
2024/03/16 02:11:52;;;;;;;35.20;21.70;;;;;;;6.49;81.55;99723.81;131004;1253;107791;-79
2024/03/16 02:14:58;;;;;;;35.40;20.90;;;;;;;6.52;81.88;99721.98;131128;1253;106619;-80
2024/03/16 02:18:03;;;;;;;34.60;21.50;;;;;;;6.54;81.88;99725.02;131107;1253;108406;-79
2024/03/16 02:21:11;;;;;;;35.10;21.70;;;;;;;6.54;81.64;99726.08;131280;1253;107036;-79
2024/03/16 02:24:17;;;;;;;38.80;22.20;;;;;;;6.52;81.62;99723.95;131165;1253;107514;-81
2024/03/16 02:27:22;;;;;;;32.60;18.90;;;;;;;6.50;81.87;99720.02;131146;1254;107689;-79
2024/03/16 02:30:28;;;;;;;34.30;19.50;;;;;;;6.49;82.14;99720.95;131302;1253;106730;-80
2024/03/16 02:33:34;;;;;;;36.30;20.60;;;;;;;6.51;82.49;99723.88;131296;1252;106684;-81
2024/03/16 02:36:39;;;;;;;34.20;21.30;;;;;;;6.52;82.34;99719.47;131200;1253;106591;-80
2024/03/16 02:39:44;;;;;;;34.40;21.00;;;;;;;6.58;82.34;99724.45;131159;1253;106626;-79
2024/03/16 02:42:49;;;;;;;33.90;21.10;;;;;;;6.63;82.39;99719.73;131119;1253;106840;-80
2024/03/16 02:45:57;;;;;;;35.20;21.20;;;;;;;6.67;82.69;99718.42;131231;1251;106565;-80
2024/03/16 02:49:02;;;;;;;31.40;18.20;;;;;;;6.69;82.36;99719.64;131395;1251;106571;-80
2024/03/16 02:52:09;;;;;;;34.70;19.80;;;;;;;6.71;82.82;99717.41;131348;1249;107816;-79
2024/03/16 02:55:14;;;;;;;33.80;19.90;;;;;;;6.74;82.83;99720.84;131381;1253;107714;-80
2024/03/16 02:58:19;;;;;;;37.90;22.20;;;;;;;6.80;82.98;99721.69;131114;1263;108658;-79
2024/03/16 03:01:24;;;;;;;36.60;23.90;;;;;;;6.88;82.59;99718.30;131180;1250;107609;-79
2024/03/16 03:04:30;;;;;;;37.10;22.70;;;;;;;6.96;83.08;99718.40;131411;1253;107061;-79
2024/03/16 03:07:35;;;;;;;38.10;23.10;;;;;;;7.02;82.55;99717.52;131341;1250;106393;-78
2024/03/16 03:10:41;;;;;;;38.50;25.10;;;;;;;7.05;82.89;99719.52;131266;1253;107786;-79
2024/03/16 03:13:47;;;;;;;32.40;19.80;;;;;;;7.08;82.75;99715.02;131198;1251;108780;-81
2024/03/16 03:16:52;;;;;;;32.10;18.30;;;;;;;7.13;82.97;99718.28;131315;1253;107708;-78
2024/03/16 03:19:58;;;;;;;32.20;20.80;;;;;;;7.17;82.97;99711.04;131351;1253;108761;-79
2024/03/16 03:23:05;;;;;;;33.00;20.50;;;;;;;7.26;83.00;99713.21;131390;1253;107204;-80
2024/03/16 03:26:11;;;;;;;34.40;21.30;;;;;;;7.30;83.39;99712.05;131382;1253;108351;-79
2024/03/16 03:29:16;;;;;;;32.90;21.00;;;;;;;7.33;83.25;99713.00;131401;1253;107439;-80
2024/03/16 03:32:22;;;;;;;33.10;21.40;;;;;;;7.35;83.25;99716.02;131261;1250;109507;-81
2024/03/16 03:35:28;;;;;;;32.40;18.90;;;;;;;7.35;83.31;99716.20;131111;1253;106671;-79
2024/03/16 03:38:33;;;;;;;28.20;18.10;;;;;;;7.37;83.25;99716.38;131203;1263;107708;-79
2024/03/16 03:41:39;;;;;;;32.10;20.40;;;;;;;7.40;83.35;99715.55;131272;1253;107495;-79
2024/03/16 03:44:50;;;;;;;33.20;20.70;;;;;;;7.46;83.70;99713.72;131167;1253;107794;-79
2024/03/16 03:48:02;;;;;;;33.30;20.90;;;;;;;7.53;83.55;99713.30;131075;1253;107748;-79
2024/03/16 03:51:07;;;;;;;33.20;20.90;;;;;;;7.58;83.49;99713.13;131159;1253;106809;-80
2024/03/16 03:54:12;;;;;;;33.30;22.30;;;;;;;7.62;83.36;99711.02;130966;1253;106623;-80
2024/03/16 03:57:18;;;;;;;31.70;19.50;;;;;;;7.62;83.68;99709.88;130968;1253;106818;-79
2024/03/16 04:00:23;;;;;;;31.70;17.50;;;;;;;7.62;83.83;99709.90;130954;1250;107564;-80
2024/03/16 04:03:28;;;;;;;31.40;20.20;;;;;;;7.64;83.67;99710.95;131000;1251;107513;-79
2024/03/16 04:06:33;;;;;;;31.40;20.40;;;;;;;7.69;83.79;99706.73;131017;1251;107106;-80
2024/03/16 04:09:38;;;;;;;32.50;21.20;;;;;;;7.76;83.94;99710.02;131014;1253;108636;-79
2024/03/16 04:12:43;;;;;;;30.40;20.00;;;;;;;7.80;83.89;99714.05;131013;1254;106245;-79
2024/03/16 04:15:49;;;;;;;32.60;20.30;;;;;;;7.82;83.87;99716.14;130989;1252;107697;-80
2024/03/16 04:18:54;;;;;;;33.50;20.40;;;;;;;7.84;83.96;99715.77;131025;1253;106597;-79
2024/03/16 04:21:59;;;;;;;31.60;18.70;;;;;;;7.85;83.97;99721.48;131201;1252;108459;-79
2024/03/16 04:25:07;;;;;;;28.20;17.60;;;;;;;7.87;84.38;99719.71;131311;1253;106688;-79
2024/03/16 04:28:13;;;;;;;29.20;17.90;;;;;;;7.91;84.32;99721.13;131381;1253;107497;-80
2024/03/16 04:31:18;;;;;;;29.90;19.70;;;;;;;7.96;84.46;99723.47;131346;1253;108517;-81
2024/03/16 04:34:25;;;;;;;28.80;18.60;;;;;;;8.02;84.53;99723.05;131011;1253;106606;-79
2024/03/16 04:37:30;;;;;;;29.10;19.00;;;;;;;8.07;84.46;99722.59;131076;1253;107657;-81
2024/03/16 04:40:35;;;;;;;31.70;20.80;;;;;;;8.10;84.58;99720.16;131016;1253;108825;-78
2024/03/16 04:43:41;;;;;;;28.10;17.30;;;;;;;8.12;84.67;99719.42;131130;1253;108795;-79
2024/03/16 04:46:46;;;;;;;26.00;16.70;;;;;;;8.14;84.60;99720.66;131023;1263;108644;-79
2024/03/16 04:49:52;;;;;;;27.90;16.40;;;;;;;8.17;84.85;99718.40;131342;1253;107490;-80
2024/03/16 04:52:57;;;;;;;30.60;18.80;;;;;;;8.22;84.89;99715.77;131366;1253;106971;-80
2024/03/16 04:56:02;;;;;;;31.40;19.60;;;;;;;8.29;84.96;99714.64;131041;1253;108013;-79
2024/03/16 04:59:07;;;;;;;28.20;18.10;;;;;;;8.34;84.90;99715.58;131021;1253;107623;-79
2024/03/16 05:02:12;;;;;;;28.90;18.50;;;;;;;8.35;84.80;99716.29;131007;1253;107870;-80
2024/03/16 05:05:18;;;;;;;31.20;19.70;;;;;;;8.37;84.91;99717.52;131338;1253;108557;-80
2024/03/16 05:08:23;;;;;;;28.10;18.70;;;;;;;8.38;84.95;99724.09;131265;1251;108155;-81
2024/03/16 05:11:28;;;;;;;25.00;16.10;;;;;;;8.38;85.05;99725.36;131244;1253;107554;-79
2024/03/16 05:14:33;;;;;;;25.00;15.40;;;;;;;8.39;85.20;99724.92;130994;1253;106725;-79
2024/03/16 05:17:39;;;;;;;25.20;16.80;;;;;;;8.42;85.25;99723.20;131064;1250;108746;-79
2024/03/16 05:20:45;;;;;;;27.10;17.30;;;;;;;8.47;85.34;99730.02;131033;1263;108614;-80
2024/03/16 05:23:51;;;;;;;28.50;17.80;;;;;;;8.53;85.41;99722.52;131027;1251;106534;-79
2024/03/16 05:26:56;;;;;;;26.80;18.00;;;;;;;8.58;85.38;99724.50;131058;1253;107976;-79
2024/03/16 05:30:02;;;;;;;26.00;17.40;;;;;;;8.62;85.49;99725.34;131044;1253;106825;-79
2024/03/16 05:33:07;;;;;;;27.20;17.40;;;;;;;8.63;85.59;99729.86;131036;1263;107764;-78
2024/03/16 05:36:13;;;;;;;24.20;15.10;;;;;;;8.63;85.60;99725.86;131178;1263;108565;-81
2024/03/16 05:39:19;;;;;;;25.70;16.70;;;;;;;8.66;85.56;99729.55;131066;1253;108503;-80
2024/03/16 05:42:24;;;;;;;26.00;16.60;;;;;;;8.70;85.86;99733.04;131227;1250;108461;-80
2024/03/16 05:45:29;;;;;;;26.00;16.90;;;;;;;8.74;85.90;99733.24;131022;1253;106869;-80
2024/03/16 05:48:34;;;;;;;25.80;17.80;;;;;;;8.77;85.84;99737.15;131114;1261;106496;-80
2024/03/16 05:51:39;;;;;;;30.10;18.30;;;;;;;8.81;85.96;99740.67;131375;1253;107653;-80
2024/03/16 05:54:44;;;;;;;26.20;16.20;;;;;;;8.83;86.08;99746.61;131283;1253;107864;-79
2024/03/16 05:57:49;;;;;;;23.20;14.30;;;;;;;8.86;86.38;99749.20;131313;1250;107331;-79
2024/03/16 06:00:55;;;;;;;23.90;16.60;;;;;;;8.89;86.41;99748.91;131142;1254;107092;-81
2024/03/16 06:04:00;;;;;;;27.10;17.70;;;;;;;8.95;86.60;99745.30;131129;1251;108713;-80
2024/03/16 06:07:06;;;;;;;25.70;17.60;;;;;;;9.00;86.72;99741.75;131138;1254;106644;-80
2024/03/16 06:10:11;;;;;;;28.00;18.60;;;;;;;9.03;86.58;99747.48;131138;1250;106989;-79
2024/03/16 06:13:16;;;;;;;27.90;19.10;;;;;;;9.05;86.89;99752.77;131429;1253;108728;-79
2024/03/16 06:16:21;;;;;;;28.10;17.10;;;;;;;9.04;87.02;99758.15;131000;1253;107128;-79
2024/03/16 06:19:26;;;;;;;28.90;18.20;;;;;;;9.04;87.07;99759.59;131350;1253;107702;-79
2024/03/16 06:22:31;;;;;;;26.60;16.90;;;;;;;9.06;87.10;99759.59;131093;1263;106628;-80
2024/03/16 06:25:46;;;;;;;25.90;17.30;;;;;;;9.09;87.42;99761.21;131378;1259;107833;-80
2024/03/16 06:29:04;;;;;;;25.20;17.50;;;;;;;9.17;87.32;99763.13;131160;1251;107867;-79
2024/03/16 06:32:09;;;;;;;25.20;17.10;;;;;;;9.23;87.56;99761.93;131346;1253;108737;-79
2024/03/16 06:35:15;;;;;;;26.10;18.30;;;;;;;9.28;87.55;99762.46;131234;1251;106875;-79
2024/03/16 06:38:20;;;;;;;28.20;17.00;;;;;;;9.30;87.78;99769.20;131388;1251;106634;-79
2024/03/16 06:41:25;;;;;;;26.30;16.50;;;;;;;9.32;87.69;99772.42;131342;1253;106679;-79
2024/03/16 06:44:30;;;;;;;24.50;16.60;;;;;;;9.33;87.83;99776.53;131185;1253;106739;-80
2024/03/16 06:47:35;;;;;;;25.10;16.60;;;;;;;9.38;88.07;99776.53;131266;1253;108610;-79
2024/03/16 06:50:40;;;;;;;28.00;17.90;;;;;;;9.43;88.20;99784.92;131371;1254;107502;-80
2024/03/16 06:53:47;;;;;;;29.00;18.60;;;;;;;9.48;88.26;99784.98;131261;1253;106269;-76
2024/03/16 06:56:52;;;;;;;29.00;18.90;;;;;;;9.50;88.35;99789.77;131164;1253;108559;-76
2024/03/16 06:59:57;;;;;;;34.20;20.90;;;;;;;9.50;88.35;99790.09;131106;1253;107822;-76
2024/03/16 07:03:02;;;;;;;30.50;18.90;;;;;;;9.50;88.78;99792.95;131165;1253;107705;-75
2024/03/16 07:06:08;;;;;;;57.40;30.10;;;;;;;9.49;88.83;99792.84;131354;1253;107150;-75
2024/03/16 07:09:18;;;;;;;31.30;19.60;;;;;;;9.49;88.93;99793.70;131391;1253;106321;-76
2024/03/16 07:12:23;;;;;;;71.80;39.90;;;;;;;9.51;89.43;99794.98;131210;1252;107054;-76
2024/03/16 07:15:28;;;;;;;109.50;51.30;;;;;;;9.50;89.45;99793.66;131474;1253;107725;-76
2024/03/16 07:18:33;;;;;;;44.60;24.70;;;;;;;9.51;89.59;99795.85;131301;1264;108013;-77
2024/03/16 07:21:38;;;;;;;35.40;21.30;;;;;;;9.54;89.79;99797.51;131213;1253;108310;-76
2024/03/16 07:24:43;;;;;;;63.90;36.30;;;;;;;9.60;89.71;99803.40;131169;1263;108679;-76
2024/03/16 07:27:48;;;;;;;149.90;74.60;;;;;;;9.67;89.98;99804.34;131185;1253;107592;-77
2024/03/16 07:30:57;;;;;;;66.20;37.30;;;;;;;9.72;90.09;99800.55;131139;1261;108656;-77
2024/03/16 07:34:04;;;;;;;44.20;28.80;;;;;;;9.76;90.12;99802.52;131140;1253;108788;-76
2024/03/16 07:37:09;;;;;;;45.00;28.70;;;;;;;9.79;90.29;99800.38;131153;1253;107278;-76
2024/03/16 07:40:14;;;;;;;35.10;23.30;;;;;;;9.85;90.69;99803.69;131294;1253;107578;-76
2024/03/16 07:43:21;;;;;;;27.80;19.10;;;;;;;9.94;90.89;99801.66;131342;1262;107081;-77
2024/03/16 07:46:26;;;;;;;25.50;17.70;;;;;;;10.08;91.03;99801.32;131098;1253;109137;-76
2024/03/16 07:49:31;;;;;;;49.70;34.10;;;;;;;10.24;91.20;99802.48;131104;1253;108566;-76
2024/03/16 07:52:36;;;;;;;36.40;25.70;;;;;;;10.43;91.27;99803.70;131076;1253;108126;-76
2024/03/16 07:55:41;;;;;;;33.20;23.90;;;;;;;10.61;91.13;99804.33;131087;1262;106646;-76
2024/03/16 07:58:46;;;;;;;28.40;19.90;;;;;;;10.78;91.01;99804.08;131350;1253;108829;-76
2024/03/16 08:01:52;;;;;;;29.20;20.50;;;;;;;10.90;91.07;99805.02;131315;1251;108686;-76
2024/03/16 08:04:57;;;;;;;41.30;27.90;;;;;;;10.98;91.02;99808.49;131129;1253;107814;-77
2024/03/16 08:08:02;;;;;;;42.80;30.30;;;;;;;11.04;91.06;99807.85;131363;1254;108464;-76
2024/03/16 08:11:07;;;;;;;38.90;26.40;;;;;;;11.07;91.23;99810.52;131580;1264;107484;-77
2024/03/16 08:14:12;;;;;;;37.30;25.80;;;;;;;11.10;91.14;99810.03;131446;1255;108322;-77
2024/03/16 08:17:18;;;;;;;25.40;18.20;;;;;;;11.17;91.45;99813.33;131574;1251;108515;-77
2024/03/16 08:20:23;;;;;;;39.30;29.10;;;;;;;11.28;91.36;99816.29;131329;1252;108602;-76
2024/03/16 08:23:29;;;;;;;28.40;20.10;;;;;;;11.41;91.69;99815.91;131090;1257;107774;-77
2024/03/16 08:26:34;;;;;;;24.80;16.90;;;;;;;11.56;91.67;99814.98;131222;1253;108655;-77
2024/03/16 08:29:39;;;;;;;30.90;20.50;;;;;;;11.72;91.72;99812.23;131070;1254;106393;-77
2024/03/16 08:32:44;;;;;;;23.60;17.20;;;;;;;11.91;91.75;99814.70;131395;1260;106407;-77
2024/03/16 08:35:50;;;;;;;31.00;21.20;;;;;;;12.05;91.99;99810.39;131311;1254;107704;-76
2024/03/16 08:38:56;;;;;;;25.70;17.60;;;;;;;12.19;91.83;99809.52;131303;1253;107915;-76
2024/03/16 08:42:01;;;;;;;35.80;25.60;;;;;;;12.30;91.89;99799.91;131327;1260;107822;-77
2024/03/16 08:45:09;;;;;;;28.90;21.60;;;;;;;12.38;91.78;99801.63;131065;1263;108458;-77
2024/03/16 08:48:14;;;;;;;20.30;15.00;;;;;;;12.50;91.94;99801.85;131112;1263;106973;-78
2024/03/16 08:51:20;;;;;;;21.00;16.20;;;;;;;12.70;92.45;99801.09;131228;1254;108590;-78
2024/03/16 08:54:25;;;;;;;23.90;17.60;;;;;;;12.89;92.32;99799.88;131359;1254;106602;-76
2024/03/16 08:57:31;;;;;;;24.50;18.40;;;;;;;13.05;91.99;99800.13;131041;1255;106886;-76
2024/03/16 09:00:36;;;;;;;21.20;17.10;;;;;;;13.16;91.92;99799.56;131031;1253;107225;-76
2024/03/16 09:03:41;;;;;;;20.50;15.50;;;;;;;13.23;91.73;99799.80;131049;1253;106715;-75
2024/03/16 09:06:46;;;;;;;21.90;16.00;;;;;;;13.29;91.87;99796.95;131072;1254;105599;-76
2024/03/16 09:09:52;;;;;;;21.80;16.30;;;;;;;13.35;91.85;99792.14;131155;1251;108408;-77
2024/03/16 09:12:58;;;;;;;28.30;20.70;;;;;;;13.42;91.77;99788.52;131102;1254;108688;-77
2024/03/16 09:16:05;;;;;;;21.60;16.10;;;;;;;13.48;91.88;99782.97;132602;1253;108561;-78
2024/03/16 09:19:10;;;;;;;18.20;15.00;;;;;;;13.51;91.64;99781.04;131556;1253;108871;-77
2024/03/16 09:22:16;;;;;;;19.00;14.60;;;;;;;13.53;91.70;99780.77;131194;1251;106350;-77
2024/03/16 09:25:21;;;;;;;16.50;12.90;;;;;;;13.61;91.69;99773.92;131324;1254;108723;-77
2024/03/16 09:28:26;;;;;;;19.70;14.60;;;;;;;13.69;91.60;99773.96;131082;1252;108415;-77
2024/03/16 09:31:31;;;;;;;18.60;14.50;;;;;;;13.82;91.69;99773.59;131040;1251;108261;-77
2024/03/16 09:34:36;;;;;;;27.40;17.40;;;;;;;13.97;91.61;99777.38;131070;1254;106733;-77
2024/03/16 09:37:41;;;;;;;17.70;13.80;;;;;;;14.14;91.54;99779.68;131186;1253;109805;-77
2024/03/16 09:40:55;;;;;;;19.20;13.90;;;;;;;14.26;91.02;99780.17;131332;1254;106855;-79
2024/03/16 09:44:00;;;;;;;16.00;11.40;;;;;;;14.40;90.97;99778.63;131086;1255;107074;-77
2024/03/16 09:47:10;;;;;;;16.10;12.60;;;;;;;14.55;90.65;99777.85;131054;1263;106859;-78
2024/03/16 09:50:17;;;;;;;16.50;12.80;;;;;;;14.66;90.59;99781.02;131051;1254;106397;-77
2024/03/16 09:53:31;;;;;;;15.60;12.70;;;;;;;14.75;90.34;99782.20;131043;1262;108757;-77
2024/03/16 09:56:36;;;;;;;17.00;13.70;;;;;;;14.79;90.21;99784.30;131003;1253;151694;-79
2024/03/16 09:59:47;;;;;;;17.00;13.30;;;;;;;14.82;90.11;99782.38;131127;1262;107944;-77
2024/03/16 10:02:53;;;;;;;18.30;13.90;;;;;;;14.85;90.20;99784.27;131264;1262;107778;-76
2024/03/16 10:05:59;;;;;;;16.90;12.70;;;;;;;14.91;90.33;99785.61;131108;1251;106584;-77
2024/03/16 10:09:12;;;;;;;18.90;13.20;;;;;;;15.06;90.32;99781.48;131369;1263;107695;-77
2024/03/16 10:12:17;;;;;;;114.80;44.80;;;;;;;15.26;90.12;99779.73;131303;1254;108682;-76
2024/03/16 10:15:22;;;;;;;89.50;41.60;;;;;;;15.44;89.26;99775.06;131061;1251;110140;-76
2024/03/16 10:18:28;;;;;;;23.20;15.60;;;;;;;15.63;89.29;99768.86;131074;1261;107491;-77
2024/03/16 10:21:33;;;;;;;20.70;14.60;;;;;;;15.80;89.01;99770.05;131302;1254;108617;-77
2024/03/16 10:24:40;;;;;;;48.90;25.30;;;;;;;15.83;88.59;99771.27;131257;1253;106291;-77
2024/03/16 10:27:46;;;;;;;18.80;14.40;;;;;;;15.83;88.22;99772.23;131080;1255;108373;-77
2024/03/16 10:30:52;;;;;;;22.50;14.10;;;;;;;15.88;88.11;99773.98;131127;1263;106180;-77
2024/03/16 10:33:59;;;;;;;16.00;12.00;;;;;;;16.02;88.17;99773.72;131215;1254;107738;-79
2024/03/16 10:37:08;;;;;;;37.00;18.70;;;;;;;16.21;88.01;99772.91;131302;1253;108733;-79
2024/03/16 10:40:16;;;;;;;51.00;26.30;;;;;;;16.33;87.30;99775.08;131406;1257;108363;-76
2024/03/16 10:43:23;;;;;;;87.80;41.50;;;;;;;16.39;86.51;99775.52;131370;1253;108625;-76
2024/03/16 10:46:28;;;;;;;63.10;31.70;;;;;;;16.43;86.58;99771.21;131281;1262;106731;-77
2024/03/16 10:49:34;;;;;;;24.20;14.20;;;;;;;16.48;86.41;99770.33;131400;1263;108777;-77
2024/03/16 10:52:43;;;;;;;13.50;9.40;;;;;;;16.57;86.17;99761.13;131243;1263;108755;-77
2024/03/16 10:55:50;;;;;;;29.40;17.40;;;;;;;16.61;85.23;99765.85;131261;1254;107734;-77
2024/03/16 10:58:55;;;;;;;26.00;13.30;;;;;;;16.58;85.08;99765.86;131246;1254;106924;-77
2024/03/16 11:02:02;;;;;;;14.60;8.60;;;;;;;16.60;85.19;99765.57;131698;1251;108703;-84
2024/03/16 11:05:35;;;;;;;12.70;7.20;;;;;;;16.72;85.47;99763.44;131582;1253;107348;-84
2024/03/16 11:08:41;;;;;;;71.40;30.90;;;;;;;16.94;84.76;99763.98;131441;1253;107713;-86
2024/03/16 11:11:52;;;;;;;33.40;14.80;;;;;;;17.00;84.01;99761.58;131514;1254;108806;-86
2024/03/16 11:15:33;;;;;;;31.30;16.50;;;;;;;17.13;83.97;99753.91;131207;1258;106978;-86
2024/03/16 11:18:47;;;;;;;34.40;19.10;;;;;;;17.29;83.43;99757.02;131225;1254;107795;-86
2024/03/16 11:21:53;;;;;;;26.30;14.80;;;;;;;17.41;83.01;99759.20;131370;1263;108381;-85
2024/03/16 11:24:58;;;;;;;19.00;11.80;;;;;;;17.51;82.19;99761.11;131317;1254;108072;-86
2024/03/16 11:28:03;;;;;;;21.10;11.80;;;;;;;17.60;81.93;99758.03;131423;1254;107490;-86
2024/03/16 11:34:44;;;;;;;16.20;10.00;;;;;;;17.76;80.66;99756.54;127034;1295;635999;-84
2024/03/16 11:37:50;;;;;;;12.90;7.60;;;;;;;17.88;80.20;99747.55;130144;1284;106527;-84
2024/03/16 11:40:55;;;;;;;9.20;6.20;;;;;;;18.12;79.92;99743.14;130153;1266;106520;-84
2024/03/16 11:44:00;;;;;;;12.90;7.70;;;;;;;18.34;79.33;99741.90;130116;1264;107797;-84
2024/03/16 11:47:07;;;;;;;8.80;5.60;;;;;;;18.44;79.30;99741.35;130087;1265;120516;-84
2024/03/16 11:50:13;;;;;;;36.00;21.40;;;;;;;18.54;79.02;99737.67;130279;1261;106560;-83
2024/03/16 11:53:18;;;;;;;12.60;8.20;;;;;;;18.58;78.84;99736.68;130656;1261;107951;-86
2024/03/16 11:56:24;;;;;;;8.80;7.00;;;;;;;18.59;76.58;99736.67;130637;1269;106555;-87
2024/03/16 11:59:29;;;;;;;15.50;9.50;;;;;;;18.61;77.76;99730.05;130600;1260;108350;-87
2024/03/16 12:02:34;;;;;;;11.20;7.40;;;;;;;18.67;76.96;99728.85;130660;1254;106573;-84
2024/03/16 12:05:39;;;;;;;8.50;6.10;;;;;;;18.70;76.93;99722.71;130967;1256;107306;-84
2024/03/16 12:08:45;;;;;;;10.30;7.00;;;;;;;18.86;76.91;99721.04;130968;1255;106780;-84
2024/03/16 12:11:50;;;;;;;10.80;7.40;;;;;;;18.93;76.07;99719.44;130989;1257;106912;-84
2024/03/16 12:15:14;;;;;;;10.00;7.10;;;;;;;18.88;75.33;99716.95;130923;1258;106671;-84
2024/03/16 12:18:21;;;;;;;6.50;4.90;;;;;;;18.74;75.00;99721.57;131111;1257;107853;-84
2024/03/16 12:21:27;;;;;;;6.60;4.60;;;;;;;18.56;74.95;99725.23;131042;1259;107109;-85
2024/03/16 12:24:33;;;;;;;7.20;4.90;;;;;;;18.39;74.57;99725.79;131011;1266;108499;-84
2024/03/16 12:27:41;;;;;;;5.20;3.90;;;;;;;18.21;74.40;99726.17;130969;1256;107734;-86
2024/03/16 12:30:47;;;;;;;4.40;3.20;;;;;;;18.08;73.64;99728.95;130960;1254;108292;-85
2024/03/16 12:33:52;;;;;;;6.20;3.80;;;;;;;18.00;73.35;99727.36;130927;1257;107872;-85
2024/03/16 12:36:57;;;;;;;5.50;3.70;;;;;;;17.86;73.78;99737.37;130990;1261;108431;-79
2024/03/16 12:40:03;;;;;;;6.00;3.60;;;;;;;17.65;73.82;99745.61;130889;1266;106270;-80
2024/03/16 12:43:10;;;;;;;5.00;3.80;;;;;;;17.41;73.64;99746.16;130893;1255;107189;-79
2024/03/16 12:46:15;;;;;;;3.90;2.60;;;;;;;17.22;74.12;99741.04;130804;1266;107850;-78
2024/03/16 12:49:20;;;;;;;3.80;2.30;;;;;;;17.09;74.07;99736.95;130842;1256;106537;-78
2024/03/16 12:52:25;;;;;;;6.00;3.40;;;;;;;17.00;74.20;99738.58;130851;1257;108681;-78
2024/03/16 12:55:30;;;;;;;7.20;3.60;;;;;;;16.92;73.97;99731.56;130769;1256;106628;-78
2024/03/16 12:58:36;;;;;;;6.00;3.70;;;;;;;16.93;73.90;99728.11;130768;1257;107729;-79
2024/03/16 13:01:41;;;;;;;4.60;2.70;;;;;;;17.06;73.87;99727.59;130832;1256;107439;-78
2024/03/16 13:04:47;;;;;;;5.40;3.10;;;;;;;17.18;72.77;99722.30;130785;1257;106494;-78
2024/03/16 13:07:52;;;;;;;21.00;9.80;;;;;;;17.12;72.79;99716.92;130797;1258;108129;-78
2024/03/16 13:10:57;;;;;;;10.70;6.10;;;;;;;17.02;73.02;99716.51;130770;1265;107026;-78
2024/03/16 13:14:02;;;;;;;23.80;9.70;;;;;;;16.91;73.08;99718.42;130813;1264;108508;-79
2024/03/16 13:17:08;;;;;;;14.50;8.40;;;;;;;16.84;73.03;99716.80;130825;1257;108698;-78
2024/03/16 13:20:17;;;;;;;30.00;15.10;;;;;;;16.86;73.07;99716.80;130747;1257;108594;-78
2024/03/16 13:23:22;;;;;;;19.30;10.70;;;;;;;16.97;72.97;99719.33;130760;1256;108475;-78
2024/03/16 13:26:28;;;;;;;7.90;4.80;;;;;;;16.98;72.49;99714.02;130778;1265;108695;-78
2024/03/16 13:29:33;;;;;;;9.10;4.30;;;;;;;16.80;69.59;99717.48;130790;1257;107016;-78
2024/03/16 13:32:38;;;;;;;19.90;10.80;;;;;;;16.71;70.47;99714.36;130782;1257;108751;-78
2024/03/16 13:35:43;;;;;;;45.00;20.00;;;;;;;16.61;70.15;99712.52;130793;1256;108205;-78
2024/03/16 13:38:48;;;;;;;51.20;25.70;;;;;;;16.50;70.96;99712.73;130774;1257;107515;-78
2024/03/16 13:41:54;;;;;;;28.90;18.50;;;;;;;16.41;71.10;99710.80;130828;1266;108687;-78
2024/03/16 13:44:59;;;;;;;10.40;7.50;;;;;;;16.37;70.94;99710.64;130836;1257;107758;-78
2024/03/16 13:48:05;;;;;;;12.30;8.40;;;;;;;16.38;70.66;99709.96;131387;1256;108693;-78
2024/03/16 13:51:10;;;;;;;7.90;6.30;;;;;;;16.38;70.57;99705.34;130811;1266;106844;-77
2024/03/16 13:54:15;;;;;;;6.40;4.60;;;;;;;16.32;70.65;99709.59;130901;1257;108619;-79
2024/03/16 13:57:20;;;;;;;13.30;8.20;;;;;;;16.25;70.47;99704.52;131010;1262;106762;-77
2024/03/16 14:00:26;;;;;;;37.70;22.10;;;;;;;16.21;69.72;99704.17;131092;1254;107381;-80
2024/03/16 14:03:31;;;;;;;12.20;7.50;;;;;;;16.17;69.93;99701.45;131224;1257;107456;-79
2024/03/16 14:06:36;;;;;;;10.10;5.40;;;;;;;16.16;69.66;99699.48;131070;1264;108736;-78